createdAt,value
2022-07-31T00:09:52.959Z,99815.06
2022-07-31T00:19:56.745Z,99805.34
2022-07-31T00:29:58.412Z,99790.47
2022-07-31T00:40:01.007Z,99820.94
2022-07-31T00:50:11.106Z,99799.38
2022-07-31T01:00:13.882Z,99801.50
2022-07-31T01:10:26.383Z,99805.53
2022-07-31T01:20:29.352Z,99798.69
2022-07-31T01:30:45.610Z,99797.56
2022-07-31T01:40:50.748Z,99822.56
2022-07-31T01:50:55.851Z,99814.88
2022-07-31T02:01:03.882Z,99810.84
2022-07-31T02:11:06.265Z,99807.03
2022-07-31T02:21:11.366Z,99804.41
2022-07-31T02:31:16.802Z,99801.56
2022-07-31T02:41:24.481Z,99804.47
2022-07-31T02:51:26.660Z,99791.13
2022-07-31T03:01:34.624Z,99792.69
2022-07-31T03:11:37.646Z,99780.88
2022-07-31T03:21:40.134Z,99804.56
2022-07-31T03:31:42.047Z,99785.47
2022-07-31T03:41:44.178Z,99796.56
2022-07-31T03:51:45.830Z,99804.16
2022-07-31T04:01:58.186Z,99784.97
2022-07-31T04:12:09.807Z,99807.97
2022-07-31T04:22:12.458Z,99804.44
2022-07-31T04:32:15.861Z,99818.13
2022-07-31T04:42:17.678Z,99811.22
2022-07-31T04:52:26.652Z,99801.03
2022-07-31T05:02:28.849Z,99805.97
2022-07-31T05:12:34.783Z,99814.78
2022-07-31T05:22:38.824Z,99832.47
2022-07-31T05:32:40.502Z,99825.28
2022-07-31T05:42:42.218Z,99817.47
2022-07-31T05:52:43.948Z,99815.44
2022-07-31T06:02:47.945Z,99807.81
2022-07-31T06:12:55.083Z,99809.25
2022-07-31T06:22:56.898Z,99811.75
2022-07-31T06:32:58.756Z,99821.09
2022-07-31T06:43:06.315Z,99811.50
2022-07-31T06:53:16.688Z,99821.34
2022-07-31T07:03:18.807Z,99824.41
2022-07-31T07:13:21.076Z,99815.44
2022-07-31T07:23:25.298Z,99807.44
2022-07-31T07:33:39.579Z,99813.88
2022-07-31T07:43:54.549Z,99784.56
2022-07-31T08:04:11.855Z,99793.50
2022-07-31T08:14:15.259Z,99827.53
2022-07-31T08:24:17.179Z,99825.53
2022-07-31T08:34:30.506Z,99829.91
2022-07-31T08:44:38.818Z,99845.53
2022-07-31T08:54:44.205Z,99841.47
2022-07-31T09:04:49.343Z,99854.84
2022-07-31T09:14:54.968Z,99852.22
2022-07-31T09:25:19.389Z,99859.72
2022-07-31T09:35:22.015Z,99866.28
2022-07-31T09:45:27.618Z,99895.59
2022-07-31T09:55:30.609Z,99867.50
2022-07-31T10:05:32.587Z,99887.88
2022-07-31T10:15:37.465Z,99891.75
2022-07-31T10:25:53.430Z,99866.34
2022-07-31T10:36:07.654Z,99876.25
2022-07-31T10:46:09.449Z,99871.69
2022-07-31T10:56:19.322Z,99880.84
2022-07-31T11:06:21.752Z,99915.63
2022-07-31T11:16:26.256Z,99923.47
2022-07-31T11:26:32.788Z,99933.59
2022-07-31T11:36:48.075Z,99912.09
2022-07-31T11:46:55.020Z,99931.56
2022-07-31T11:56:57.758Z,99929.97
2022-07-31T12:07:00.374Z,99943.84
2022-07-31T12:17:05.607Z,99930.59
2022-07-31T12:27:09.206Z,99946.72
2022-07-31T12:37:13.488Z,99956.53
2022-07-31T12:47:26.864Z,99973.47
2022-07-31T12:57:41.743Z,99967.94
2022-07-31T13:07:56.894Z,99964.22
2022-07-31T13:18:02.070Z,99964.34
2022-07-31T13:28:04.165Z,99976.22
2022-07-31T13:38:13.153Z,99953.28
2022-07-31T13:48:15.462Z,99955.50
2022-07-31T13:58:21.480Z,99970.06
2022-07-31T14:08:33.547Z,99984.81
2022-07-31T14:18:45.339Z,99975.06
2022-07-31T14:28:50.361Z,99998.06
2022-07-31T14:38:53.622Z,100006.31
2022-07-31T14:48:55.401Z,99999.34
2022-07-31T14:58:58.903Z,100001.31
2022-07-31T15:09:02.336Z,99971.06
2022-07-31T15:19:04.041Z,99948.41
2022-07-31T15:29:06.139Z,99959.34
2022-07-31T15:39:08.019Z,99967.19
2022-07-31T15:49:11.367Z,99936.84
2022-07-31T15:59:14.241Z,99938.03
2022-07-31T16:09:16.387Z,99938.06
2022-07-31T16:19:19.894Z,99951.53
2022-07-31T16:30:00.896Z,99922.66
2022-07-31T16:39:53.120Z,99917.09
2022-07-31T16:49:55.883Z,99942.78
2022-07-31T16:59:58.202Z,99936.16
2022-07-31T17:10:07.013Z,99932.81
2022-07-31T17:20:10.891Z,99921.09
2022-07-31T17:30:13.824Z,99941.09
2022-07-31T17:40:40.799Z,99957.34
2022-07-31T17:50:38.368Z,99964.56
2022-07-31T18:00:42.433Z,99963.66
2022-07-31T18:10:54.244Z,99936.44
2022-07-31T18:20:59.170Z,99954.19
2022-07-31T18:31:02.977Z,99966.06
2022-07-31T18:41:06.088Z,99975.13
2022-07-31T18:51:08.409Z,99972.53
2022-07-31T19:01:10.393Z,99985.16
2022-07-31T19:11:13.658Z,99983.94
2022-07-31T19:21:23.151Z,100005.09
2022-07-31T19:31:38.121Z,100006.34
2022-07-31T19:42:11.047Z,100024.31
2022-07-31T19:52:09.193Z,100022.38
2022-07-31T20:02:16.570Z,100012.06
2022-07-31T20:12:19.842Z,100000.53
2022-07-31T20:22:22.610Z,99994.69
2022-07-31T20:32:24.340Z,99988.66
2022-07-31T20:42:26.293Z,99989.84
2022-07-31T20:52:30.029Z,99995.19
2022-07-31T21:02:31.742Z,99990.84
2022-07-31T21:12:40.198Z,99995.88
2022-07-31T21:22:42.422Z,100003.13
2022-07-31T21:32:46.284Z,99992.19
2022-07-31T21:42:48.279Z,100001.91
2022-07-31T21:52:53.774Z,100012.47
2022-07-31T22:02:55.493Z,100028.16
2022-07-31T22:12:57.233Z,100030.09
2022-07-31T22:22:59.135Z,100036.25
2022-07-31T22:33:05.947Z,100041.63
2022-07-31T22:44:11.540Z,100023.69
2022-07-31T22:53:29.983Z,100019.75
2022-07-31T23:03:31.650Z,100021.50
2022-07-31T23:13:36.334Z,100020.50
2022-07-31T23:23:37.983Z,100017.63
2022-07-31T23:33:39.676Z,100008.94
2022-07-31T23:43:54.332Z,100015.63
2022-07-31T23:53:59.488Z,100004.75
